createdAt,value
2018-08-14T00:00:14.207Z,13.12
2018-08-14T00:01:14.223Z,13.08
2018-08-14T00:02:14.238Z,13.10
2018-08-14T00:03:14.257Z,13.11
2018-08-14T00:04:14.276Z,13.07
2018-08-14T00:05:14.291Z,13.11
2018-08-14T00:06:14.318Z,13.07
2018-08-14T00:07:14.328Z,12.97
2018-08-14T00:08:14.349Z,13.11
2018-08-14T00:09:14.362Z,13.08
2018-08-14T00:10:14.382Z,13.12
2018-08-14T00:11:14.403Z,13.08
2018-08-14T00:12:14.418Z,13.03
2018-08-14T00:13:14.435Z,13.00
2018-08-14T00:14:14.455Z,12.96
2018-08-14T00:15:14.470Z,12.96
2018-08-14T00:16:14.493Z,12.97
2018-08-14T00:17:14.506Z,13.07
2018-08-14T00:18:14.524Z,13.10
2018-08-14T00:19:14.543Z,13.07
2018-08-14T00:20:14.559Z,13.07
2018-08-14T00:21:14.577Z,13.08
2018-08-14T00:22:14.594Z,13.07
2018-08-14T00:23:14.614Z,12.96
2018-08-14T00:24:14.631Z,13.03
2018-08-14T00:25:14.649Z,13.00
2018-08-14T00:26:14.666Z,13.00
2018-08-14T00:27:14.683Z,12.95
2018-08-14T00:28:14.703Z,13.00
2018-08-14T00:29:14.718Z,12.96
2018-08-14T00:30:14.737Z,13.08
2018-08-14T00:31:14.757Z,12.92
2018-08-14T00:32:14.775Z,13.04
2018-08-14T00:33:14.791Z,13.05
2018-08-14T00:34:14.808Z,13.04
2018-08-14T00:35:14.827Z,13.00
2018-08-14T00:36:14.844Z,13.05
2018-08-14T00:37:14.862Z,13.12
2018-08-14T00:38:14.882Z,13.10
2018-08-14T00:39:14.896Z,13.14
2018-08-14T00:40:14.916Z,13.07
2018-08-14T00:41:14.934Z,13.07
2018-08-14T00:42:14.950Z,13.01
2018-08-14T00:43:14.967Z,13.07
2018-08-14T00:44:14.986Z,13.00
2018-08-14T00:45:15.005Z,12.93
2018-08-14T00:46:15.021Z,13.11
2018-08-14T00:47:15.039Z,13.05
2018-08-14T00:48:15.058Z,12.96
2018-08-14T00:49:15.075Z,12.95
2018-08-14T00:50:15.093Z,13.00
2018-08-14T00:51:15.111Z,13.00
2018-08-14T00:52:15.129Z,12.95
2018-08-14T00:53:15.147Z,12.96
2018-08-14T00:54:15.164Z,12.95
2018-08-14T00:55:15.182Z,12.86
2018-08-14T00:56:15.198Z,12.96
2018-08-14T00:57:15.217Z,12.90
2018-08-14T00:58:15.233Z,13.01
2018-08-14T00:59:15.252Z,13.03
2018-08-14T01:00:15.271Z,13.04
2018-08-14T01:01:15.286Z,13.04
2018-08-14T01:02:15.305Z,12.95
2018-08-14T01:03:15.321Z,12.96
2018-08-14T01:04:15.344Z,13.00
2018-08-14T01:05:15.357Z,13.00
2018-08-14T01:06:15.376Z,13.03
2018-08-14T01:07:15.394Z,13.00
2018-08-14T01:08:15.411Z,13.00
2018-08-14T01:09:15.429Z,12.97
2018-08-14T01:10:15.446Z,13.03
2018-08-14T01:11:15.462Z,13.08
2018-08-14T01:12:15.481Z,13.04
2018-08-14T01:13:15.498Z,12.96
2018-08-14T01:14:15.517Z,12.95
2018-08-14T01:15:15.534Z,13.00
2018-08-14T01:16:15.553Z,13.03
2018-08-14T01:17:15.571Z,13.05
2018-08-14T01:18:15.593Z,13.01
2018-08-14T01:19:15.604Z,13.01
2018-08-14T01:20:15.634Z,12.96
2018-08-14T01:21:15.640Z,12.96
2018-08-14T01:22:15.658Z,12.90
2018-08-14T01:23:15.676Z,12.77
2018-08-14T01:24:15.695Z,12.62
2018-08-14T01:25:15.710Z,12.59
2018-08-14T01:26:15.728Z,12.64
2018-08-14T01:27:15.745Z,12.53
2018-08-14T01:28:15.764Z,12.59
2018-08-14T01:29:15.782Z,12.59
2018-08-14T01:30:15.799Z,12.50
2018-08-14T01:31:15.819Z,12.46
2018-08-14T01:32:15.836Z,12.38
2018-08-14T01:33:15.851Z,12.35
2018-08-14T01:34:15.873Z,12.32
2018-08-14T01:35:15.887Z,12.34
2018-08-14T01:36:15.903Z,12.34
2018-08-14T01:37:15.922Z,12.39
2018-08-14T01:38:15.941Z,12.34
2018-08-14T01:39:15.958Z,12.29
2018-08-14T01:40:15.975Z,12.32
2018-08-14T01:41:15.994Z,12.34
2018-08-14T01:42:16.012Z,12.31
2018-08-14T01:43:16.027Z,12.37
2018-08-14T01:44:16.046Z,12.31
2018-08-14T01:45:16.065Z,12.24
2018-08-14T01:46:16.081Z,12.24
2018-08-14T01:47:16.106Z,12.24
2018-08-14T01:48:16.120Z,12.28
2018-08-14T01:49:16.160Z,12.31
2018-08-14T01:50:16.151Z,12.38
2018-08-14T01:51:16.167Z,12.31
2018-08-14T01:52:16.185Z,12.38
2018-08-14T01:53:16.201Z,12.35
2018-08-14T01:54:16.222Z,12.34
2018-08-14T01:55:16.241Z,12.31
2018-08-14T01:56:16.259Z,12.27
2018-08-14T01:57:16.276Z,12.16
2018-08-14T01:58:16.289Z,12.14
2018-08-14T01:59:16.308Z,12.20
2018-08-14T02:00:16.326Z,12.24
2018-08-14T02:01:16.342Z,12.21
2018-08-14T02:02:16.361Z,12.27
2018-08-14T02:03:16.378Z,12.32
2018-08-14T02:04:16.394Z,12.27
2018-08-14T02:05:16.412Z,12.35
2018-08-14T02:06:16.429Z,12.41
2018-08-14T02:07:16.446Z,12.38
2018-08-14T02:08:16.463Z,12.35
2018-08-14T02:09:16.490Z,12.38
2018-08-14T02:10:16.499Z,12.42
2018-08-14T02:11:16.516Z,12.39
2018-08-14T02:12:16.536Z,12.46
2018-08-14T02:13:16.561Z,12.45
2018-08-14T02:14:16.567Z,12.37
2018-08-14T02:15:16.585Z,12.50
2018-08-14T02:16:16.606Z,12.49
2018-08-14T02:17:16.621Z,12.47
2018-08-14T02:18:16.638Z,12.38
2018-08-14T02:19:16.656Z,12.38
2018-08-14T02:20:16.673Z,12.47
2018-08-14T02:21:16.689Z,12.35
2018-08-14T02:22:16.708Z,12.27
2018-08-14T02:23:16.724Z,12.27
2018-08-14T02:24:16.743Z,12.29
2018-08-14T02:25:16.761Z,12.31
2018-08-14T02:26:16.777Z,12.29
2018-08-14T02:27:16.795Z,12.24
2018-08-14T02:28:16.815Z,12.27
2018-08-14T02:29:16.828Z,12.29
2018-08-14T02:30:16.848Z,12.31
2018-08-14T02:31:16.864Z,12.32
2018-08-14T02:32:16.882Z,12.38
2018-08-14T02:33:16.907Z,12.34
2018-08-14T02:34:16.918Z,12.34
2018-08-14T02:35:16.935Z,12.28
2018-08-14T02:36:16.951Z,12.29
2018-08-14T02:37:16.968Z,12.29
2018-08-14T02:38:16.990Z,12.28
2018-08-14T02:39:17.004Z,12.27
2018-08-14T02:40:17.037Z,12.28
2018-08-14T02:41:17.038Z,12.27
2018-08-14T02:42:17.055Z,12.32
2018-08-14T02:43:17.075Z,12.31
2018-08-14T02:44:17.092Z,12.29
2018-08-14T02:45:17.112Z,12.29
2018-08-14T02:46:17.132Z,12.28
2018-08-14T02:47:17.145Z,12.29
2018-08-14T02:48:17.164Z,12.28
2018-08-14T02:49:17.179Z,12.31
2018-08-14T02:50:17.199Z,12.28
2018-08-14T02:51:17.216Z,12.31
2018-08-14T02:52:17.231Z,12.32
2018-08-14T02:53:17.248Z,12.28
2018-08-14T02:54:17.269Z,12.19
2018-08-14T02:55:17.282Z,12.21
2018-08-14T02:56:17.302Z,12.17
2018-08-14T02:57:17.317Z,12.20
2018-08-14T02:58:17.335Z,12.24
2018-08-14T02:59:17.356Z,12.31
2018-08-14T03:00:17.369Z,12.16
2018-08-14T03:01:17.385Z,12.16
2018-08-14T03:02:17.402Z,12.17
2018-08-14T03:03:17.420Z,12.13
2018-08-14T03:04:17.438Z,12.13
2018-08-14T03:05:17.454Z,12.04
2018-08-14T03:06:17.472Z,12.17
2018-08-14T03:07:17.494Z,11.99
2018-08-14T03:08:17.553Z,12.01
2018-08-14T03:09:17.522Z,12.09
2018-08-14T03:10:17.537Z,12.04
2018-08-14T03:11:17.560Z,11.95
2018-08-14T03:12:17.574Z,11.88
2018-08-14T03:13:17.592Z,11.94
2018-08-14T03:14:17.608Z,11.91
2018-08-14T03:15:17.626Z,11.88
2018-08-14T03:16:17.643Z,11.86
2018-08-14T03:17:17.657Z,11.88
2018-08-14T03:18:17.676Z,11.90
2018-08-14T03:19:17.694Z,11.83
2018-08-14T03:20:17.712Z,11.85
2018-08-14T03:21:17.727Z,11.85
2018-08-14T03:22:17.745Z,11.83
2018-08-14T03:23:17.765Z,11.62
2018-08-14T03:24:17.779Z,11.62
2018-08-14T03:25:17.794Z,11.64
2018-08-14T03:26:17.811Z,11.62
2018-08-14T03:27:17.833Z,11.49
2018-08-14T03:28:17.849Z,11.43
2018-08-14T03:29:17.869Z,11.47
2018-08-14T03:30:17.883Z,11.39
2018-08-14T03:31:17.898Z,11.39
2018-08-14T03:32:17.930Z,11.42
2018-08-14T03:33:17.932Z,11.43
2018-08-14T03:34:17.948Z,11.37
2018-08-14T03:35:17.967Z,11.39
2018-08-14T03:36:17.981Z,11.39
2018-08-14T03:37:17.997Z,11.37
2018-08-14T03:38:18.015Z,11.33
2018-08-14T03:39:18.033Z,11.27
2018-08-14T03:40:18.049Z,11.24
2018-08-14T03:41:18.064Z,11.24
2018-08-14T03:42:18.081Z,11.36
2018-08-14T03:43:18.099Z,11.37
2018-08-14T03:44:18.116Z,11.19
2018-08-14T03:45:18.136Z,11.18
2018-08-14T03:46:18.151Z,11.19
2018-08-14T03:47:18.165Z,11.22
2018-08-14T03:48:18.183Z,11.32
2018-08-14T03:49:18.199Z,11.24
2018-08-14T03:50:18.214Z,11.27
2018-08-14T03:51:18.233Z,11.32
2018-08-14T03:52:18.250Z,11.35
2018-08-14T03:53:18.264Z,11.39
2018-08-14T03:54:18.281Z,11.43
2018-08-14T03:55:18.299Z,11.44
2018-08-14T03:56:18.315Z,11.46
2018-08-14T03:57:18.331Z,11.43
2018-08-14T03:58:18.347Z,11.44
2018-08-14T03:59:18.363Z,11.51
2018-08-14T04:00:18.384Z,11.49
2018-08-14T04:01:18.402Z,11.44
2018-08-14T04:02:18.416Z,11.44
2018-08-14T04:03:18.431Z,11.46
2018-08-14T04:04:18.449Z,11.49
2018-08-14T04:05:18.464Z,11.44
2018-08-14T04:06:18.481Z,11.44
2018-08-14T04:07:18.495Z,11.46
2018-08-14T04:08:18.514Z,11.44
2018-08-14T04:09:18.530Z,11.42
2018-08-14T04:10:18.545Z,11.37
2018-08-14T04:11:18.566Z,11.52
2018-08-14T04:12:18.579Z,11.49
2018-08-14T04:13:18.597Z,11.42
2018-08-14T04:14:18.613Z,11.49
2018-08-14T04:15:18.629Z,11.52
2018-08-14T04:16:18.648Z,11.42
2018-08-14T04:17:18.665Z,11.51
2018-08-14T04:18:18.679Z,11.37
2018-08-14T04:19:18.697Z,11.36
2018-08-14T04:20:18.714Z,11.44
2018-08-14T04:21:18.727Z,11.40
2018-08-14T04:22:18.745Z,11.33
2018-08-14T04:23:18.760Z,11.35
2018-08-14T04:24:18.778Z,11.37
2018-08-14T04:25:18.793Z,11.36
2018-08-14T04:26:18.810Z,11.39
2018-08-14T04:27:18.830Z,11.39
2018-08-14T04:28:18.845Z,11.37
2018-08-14T04:29:18.859Z,11.37
2018-08-14T04:30:18.878Z,11.37
2018-08-14T04:31:18.895Z,11.40
2018-08-14T04:32:18.911Z,11.35
2018-08-14T04:33:18.965Z,11.40
2018-08-14T04:34:18.943Z,11.40
2018-08-14T04:35:18.960Z,11.42
2018-08-14T04:36:18.976Z,11.35
2018-08-14T04:37:18.992Z,11.37
2018-08-14T04:38:19.009Z,11.42
2018-08-14T04:39:19.025Z,11.39
2018-08-14T04:40:19.042Z,11.40
2018-08-14T04:41:19.059Z,11.42
2018-08-14T04:42:19.074Z,11.37
2018-08-14T04:43:19.093Z,11.40
2018-08-14T04:44:19.117Z,11.43
2018-08-14T04:45:19.193Z,11.44
2018-08-14T04:46:19.144Z,11.44
2018-08-14T04:47:19.159Z,11.44
2018-08-14T04:48:19.181Z,11.46
2018-08-14T04:49:19.189Z,11.47
2018-08-14T04:50:19.207Z,11.54
2018-08-14T04:51:19.224Z,11.49
2018-08-14T04:52:19.243Z,11.52
2018-08-14T04:53:19.256Z,11.51
2018-08-14T04:54:19.274Z,11.44
2018-08-14T04:55:19.289Z,11.47
2018-08-14T04:56:19.309Z,11.51
2018-08-14T04:57:19.321Z,11.51
2018-08-14T04:58:19.340Z,11.46
2018-08-14T04:59:19.354Z,11.44
2018-08-14T05:00:19.371Z,11.44
2018-08-14T05:01:19.388Z,11.37
2018-08-14T05:02:19.443Z,11.42
2018-08-14T05:03:19.462Z,11.33
2018-08-14T05:04:19.439Z,11.35
2018-08-14T05:05:19.453Z,11.33
2018-08-14T05:06:19.472Z,11.24
2018-08-14T05:07:19.488Z,11.35
2018-08-14T05:08:19.503Z,11.27
2018-08-14T05:09:19.519Z,11.24
2018-08-14T05:10:19.537Z,11.35
2018-08-14T05:11:19.553Z,11.33
2018-08-14T05:12:19.640Z,11.39
2018-08-14T05:13:19.588Z,11.37
2018-08-14T05:14:19.603Z,11.32
2018-08-14T05:15:19.620Z,11.43
2018-08-14T05:16:19.635Z,11.47
2018-08-14T05:17:19.650Z,11.46
2018-08-14T05:18:19.668Z,11.55
2018-08-14T05:19:19.735Z,11.51
2018-08-14T05:20:19.761Z,11.49
2018-08-14T05:21:19.792Z,11.54
2018-08-14T05:22:19.771Z,11.60
2018-08-14T05:23:19.801Z,11.64
2018-08-14T05:24:19.809Z,11.55
2018-08-14T05:25:19.815Z,11.69
2018-08-14T05:26:19.851Z,11.69
2018-08-14T05:27:19.853Z,11.67
2018-08-14T05:28:19.894Z,11.67
2018-08-14T05:29:19.854Z,11.69
2018-08-14T05:30:19.894Z,11.78
2018-08-14T05:31:19.941Z,11.79
2018-08-14T05:32:19.931Z,11.82
2018-08-14T05:33:20.009Z,11.85
2018-08-14T05:34:19.997Z,11.85
2018-08-14T05:35:19.986Z,11.83
2018-08-14T05:36:20.025Z,11.90
2018-08-14T05:37:20.029Z,11.85
2018-08-14T05:38:19.998Z,11.86
2018-08-14T05:39:20.038Z,11.82
2018-08-14T05:40:20.072Z,11.85
2018-08-14T05:41:20.117Z,11.85
2018-08-14T05:42:20.116Z,11.85
2018-08-14T05:43:20.117Z,11.85
2018-08-14T05:44:20.143Z,11.94
2018-08-14T05:45:20.189Z,11.91
2018-08-14T05:46:20.200Z,11.95
2018-08-14T05:47:20.182Z,11.98
2018-08-14T05:48:20.212Z,12.02
2018-08-14T05:49:20.220Z,11.95
2018-08-14T05:50:20.261Z,11.79
2018-08-14T05:51:20.240Z,11.62
2018-08-14T05:52:20.285Z,11.52
2018-08-14T05:53:20.292Z,11.44
2018-08-14T05:54:20.267Z,11.39
2018-08-14T05:55:20.335Z,11.24
2018-08-14T05:56:20.301Z,11.03
2018-08-14T05:57:20.342Z,10.86
2018-08-14T05:58:20.347Z,10.89
2018-08-14T05:59:20.350Z,10.81
2018-08-14T06:00:20.415Z,10.79
2018-08-14T06:01:20.385Z,10.81
2018-08-14T06:02:20.437Z,10.96
2018-08-14T06:03:20.418Z,10.97
2018-08-14T06:04:20.434Z,11.07
2018-08-14T06:05:20.452Z,11.07
2018-08-14T06:06:20.469Z,11.04
2018-08-14T06:07:20.510Z,11.04
2018-08-14T06:08:20.502Z,11.03
2018-08-14T06:09:20.517Z,10.97
2018-08-14T06:10:20.554Z,10.96
2018-08-14T06:11:20.549Z,10.97
2018-08-14T06:12:20.630Z,10.99
2018-08-14T06:13:20.582Z,11.00
2018-08-14T06:14:20.598Z,10.96
2018-08-14T06:15:20.617Z,11.06
2018-08-14T06:16:20.665Z,10.85
2018-08-14T06:17:20.649Z,10.86
2018-08-14T06:18:20.665Z,10.78
2018-08-14T06:19:20.682Z,10.85
2018-08-14T06:20:20.698Z,10.85
2018-08-14T06:21:20.714Z,10.85
2018-08-14T06:22:20.729Z,10.88
2018-08-14T06:23:20.748Z,10.79
2018-08-14T06:24:20.836Z,10.78
2018-08-14T06:25:20.874Z,10.73
2018-08-14T06:26:20.820Z,10.78
2018-08-14T06:27:20.813Z,10.74
2018-08-14T06:28:20.873Z,10.74
2018-08-14T06:29:20.860Z,10.81
2018-08-14T06:30:20.937Z,10.88
2018-08-14T06:31:20.878Z,10.99
2018-08-14T06:32:20.895Z,11.02
2018-08-14T06:33:20.931Z,11.00
2018-08-14T06:34:20.958Z,11.11
2018-08-14T06:35:20.989Z,11.19
2018-08-14T06:36:20.962Z,11.15
2018-08-14T06:37:21.006Z,11.17
2018-08-14T06:38:20.991Z,11.14
2018-08-14T06:39:21.010Z,11.28
2018-08-14T06:40:21.028Z,11.36
2018-08-14T06:41:21.040Z,11.44
2018-08-14T06:42:21.056Z,11.55
2018-08-14T06:43:21.077Z,11.58
2018-08-14T06:44:21.091Z,11.65
2018-08-14T06:45:21.107Z,11.73
2018-08-14T06:46:21.124Z,11.78
2018-08-14T06:47:21.140Z,11.86
2018-08-14T06:48:21.156Z,11.86
2018-08-14T06:49:21.173Z,11.96
2018-08-14T06:50:21.193Z,12.04
2018-08-14T06:51:21.206Z,12.16
2018-08-14T06:52:21.223Z,12.17
2018-08-14T06:53:21.240Z,12.20
2018-08-14T06:54:21.254Z,12.31
2018-08-14T06:55:21.272Z,12.37
2018-08-14T06:56:21.288Z,12.41
2018-08-14T06:57:21.305Z,12.37
2018-08-14T06:58:21.329Z,12.34
2018-08-14T06:59:21.341Z,12.23
2018-08-14T07:00:21.360Z,12.02
2018-08-14T07:01:21.377Z,11.94
2018-08-14T07:02:21.391Z,11.73
2018-08-14T07:03:21.408Z,11.79
2018-08-14T07:04:21.423Z,11.82
2018-08-14T07:05:21.440Z,11.99
2018-08-14T07:06:21.456Z,12.04
2018-08-14T07:07:21.478Z,12.07
2018-08-14T07:08:21.497Z,12.01
2018-08-14T07:09:21.508Z,12.09
2018-08-14T07:10:21.525Z,12.13
2018-08-14T07:11:21.542Z,12.01
2018-08-14T07:12:21.622Z,11.73
2018-08-14T07:13:21.574Z,11.70
2018-08-14T07:14:21.591Z,11.70
2018-08-14T07:15:21.609Z,11.73
2018-08-14T07:16:21.630Z,11.79
2018-08-14T07:17:21.642Z,11.83
2018-08-14T07:18:21.659Z,11.94
2018-08-14T07:19:21.679Z,11.95
2018-08-14T07:20:21.692Z,11.85
2018-08-14T07:21:21.722Z,11.91
2018-08-14T07:22:21.801Z,11.99
2018-08-14T07:23:21.743Z,12.09
2018-08-14T07:24:21.780Z,12.10
2018-08-14T07:25:21.776Z,12.24
2018-08-14T07:26:21.793Z,12.02
2018-08-14T07:27:21.815Z,11.78
2018-08-14T07:28:21.889Z,11.69
2018-08-14T07:29:21.842Z,11.85
2018-08-14T07:30:21.860Z,11.85
2018-08-14T07:31:21.876Z,11.83
2018-08-14T07:32:21.894Z,11.88
2018-08-14T07:33:21.912Z,11.85
2018-08-14T07:34:21.929Z,11.96
2018-08-14T07:35:21.946Z,12.01
2018-08-14T07:36:21.962Z,12.19
2018-08-14T07:37:21.986Z,12.21
2018-08-14T07:38:21.994Z,12.09
2018-08-14T07:39:22.017Z,12.13
2018-08-14T07:40:22.030Z,12.14
2018-08-14T07:41:22.069Z,12.09
2018-08-14T07:42:22.060Z,12.19
2018-08-14T07:43:22.083Z,12.16
2018-08-14T07:44:22.096Z,12.29
2018-08-14T07:45:22.113Z,12.39
2018-08-14T07:46:22.128Z,12.35
2018-08-14T07:47:22.147Z,12.28
2018-08-14T07:48:22.163Z,12.27
2018-08-14T07:49:22.176Z,12.32
2018-08-14T07:50:22.199Z,12.34
2018-08-14T07:51:22.212Z,12.37
2018-08-14T07:52:22.231Z,12.42
2018-08-14T07:53:22.282Z,12.46
2018-08-14T07:54:22.263Z,12.56
2018-08-14T07:55:22.287Z,12.52
2018-08-14T07:56:22.296Z,12.53
2018-08-14T07:57:22.313Z,12.39
2018-08-14T07:58:22.330Z,12.41
2018-08-14T07:59:22.352Z,12.47
2018-08-14T08:00:22.365Z,12.38
2018-08-14T08:01:22.381Z,12.37
2018-08-14T08:02:22.404Z,12.46
2018-08-14T08:03:22.417Z,12.37
2018-08-14T08:04:22.433Z,12.49
2018-08-14T08:05:22.450Z,12.54
2018-08-14T08:06:22.476Z,12.64
2018-08-14T08:07:22.483Z,12.75
2018-08-14T08:08:22.500Z,12.70
2018-08-14T08:09:22.519Z,12.86
2018-08-14T08:10:22.554Z,12.90
2018-08-14T08:11:22.554Z,13.07
2018-08-14T08:12:22.571Z,13.08
2018-08-14T08:13:22.586Z,13.11
2018-08-14T08:14:22.602Z,13.11
2018-08-14T08:15:22.622Z,13.08
2018-08-14T08:16:22.639Z,13.05
2018-08-14T08:17:22.654Z,13.12
2018-08-14T08:18:22.692Z,13.10
2018-08-14T08:19:22.691Z,12.96
2018-08-14T08:20:22.708Z,13.11
2018-08-14T08:21:22.725Z,13.05
2018-08-14T08:22:22.742Z,13.00
2018-08-14T08:23:22.762Z,12.82
2018-08-14T08:24:22.778Z,12.71
2018-08-14T08:25:22.794Z,12.72
2018-08-14T08:26:22.813Z,12.82
2018-08-14T08:27:22.830Z,12.87
2018-08-14T08:28:22.848Z,12.79
2018-08-14T08:29:22.869Z,12.89
2018-08-14T08:30:22.885Z,12.92
2018-08-14T08:31:22.949Z,13.04
2018-08-14T08:32:22.916Z,13.00
2018-08-14T08:33:22.933Z,12.82
2018-08-14T08:34:23.027Z,12.82
2018-08-14T08:35:22.972Z,12.77
2018-08-14T08:36:22.989Z,12.77
2018-08-14T08:37:23.005Z,12.67
2018-08-14T08:38:23.019Z,12.87
2018-08-14T08:39:23.038Z,12.89
2018-08-14T08:40:23.060Z,12.87
2018-08-14T08:41:23.076Z,12.86
2018-08-14T08:42:23.095Z,13.12
2018-08-14T08:43:23.115Z,13.22
2018-08-14T08:44:23.128Z,13.39
2018-08-14T08:45:23.145Z,13.38
2018-08-14T08:46:23.169Z,13.42
2018-08-14T08:47:23.233Z,13.33
2018-08-14T08:48:23.203Z,13.30
2018-08-14T08:49:23.212Z,13.32
2018-08-14T08:50:23.231Z,13.20
2018-08-14T08:51:23.256Z,13.36
2018-08-14T08:52:23.269Z,13.38
2018-08-14T08:53:23.286Z,13.29
2018-08-14T08:54:23.303Z,13.29
2018-08-14T08:55:23.322Z,13.46
2018-08-14T08:56:23.340Z,13.38
2018-08-14T08:57:23.355Z,13.48
2018-08-14T08:58:23.420Z,13.49
2018-08-14T08:59:23.391Z,13.63
2018-08-14T09:00:23.410Z,13.60
2018-08-14T09:01:23.430Z,13.46
2018-08-14T09:02:23.447Z,13.57
2018-08-14T09:03:23.464Z,13.63
2018-08-14T09:04:23.480Z,13.48
2018-08-14T09:05:23.499Z,13.57
2018-08-14T09:06:23.519Z,13.63
2018-08-14T09:07:23.532Z,13.66
2018-08-14T09:08:23.553Z,13.36
2018-08-14T09:09:23.595Z,13.33
2018-08-14T09:10:23.589Z,13.55
2018-08-14T09:11:23.605Z,13.62
2018-08-14T09:12:23.624Z,13.67
2018-08-14T09:13:23.641Z,13.92
2018-08-14T09:14:23.659Z,13.87
2018-08-14T09:15:23.677Z,14.12
2018-08-14T09:16:23.694Z,14.40
2018-08-14T09:17:23.713Z,14.68
2018-08-14T09:18:23.731Z,14.46
2018-08-14T09:19:23.750Z,14.24
2018-08-14T09:20:23.770Z,13.84
2018-08-14T09:21:23.785Z,13.88
2018-08-14T09:22:23.851Z,14.20
2018-08-14T09:23:23.822Z,14.03
2018-08-14T09:24:23.842Z,14.29
2018-08-14T09:25:23.859Z,14.58
2018-08-14T09:26:23.876Z,15.17
2018-08-14T09:27:23.893Z,15.38
2018-08-14T09:28:23.913Z,15.34
2018-08-14T09:29:23.933Z,15.14
2018-08-14T09:30:23.949Z,14.73
2018-08-14T09:31:23.969Z,15.01
2018-08-14T09:32:23.986Z,15.19
2018-08-14T09:33:24.004Z,15.34
2018-08-14T09:34:24.025Z,15.36
2018-08-14T09:35:24.042Z,14.91
2018-08-14T09:36:24.061Z,14.89
2018-08-14T09:37:24.077Z,14.65
2018-08-14T09:38:24.095Z,14.70
2018-08-14T09:39:24.120Z,14.50
2018-08-14T09:40:24.137Z,14.35
2018-08-14T09:41:24.153Z,14.36
2018-08-14T09:42:24.170Z,14.06
2018-08-14T09:43:24.188Z,13.92
2018-08-14T09:44:24.206Z,13.87
2018-08-14T09:45:24.224Z,13.78
2018-08-14T09:46:24.244Z,13.85
2018-08-14T09:47:24.260Z,14.25
2018-08-14T09:48:24.281Z,14.24
2018-08-14T09:49:24.295Z,14.55
2018-08-14T09:50:24.316Z,14.83
2018-08-14T09:51:24.333Z,14.95
2018-08-14T09:52:24.353Z,15.06
2018-08-14T09:53:24.370Z,15.28
2018-08-14T09:54:24.434Z,15.53
2018-08-14T09:55:24.408Z,15.78
2018-08-14T09:56:24.427Z,15.90
2018-08-14T09:57:24.442Z,15.90
2018-08-14T09:58:24.465Z,15.90
2018-08-14T09:59:24.480Z,16.17
2018-08-14T10:00:24.500Z,16.28
2018-08-14T10:01:24.519Z,16.48
2018-08-14T10:02:24.543Z,16.79
2018-08-14T10:03:24.556Z,16.60
2018-08-14T10:04:24.577Z,16.73
2018-08-14T10:05:24.593Z,16.24
2018-08-14T10:06:24.617Z,16.28
2018-08-14T10:07:24.635Z,15.93
2018-08-14T10:08:24.651Z,15.62
2018-08-14T10:09:24.668Z,15.90
2018-08-14T10:10:24.686Z,16.12
2018-08-14T10:11:24.708Z,15.71
2018-08-14T10:12:24.728Z,15.56
2018-08-14T10:13:24.744Z,15.89
2018-08-14T10:14:24.763Z,16.25
2018-08-14T10:15:24.782Z,16.30
2018-08-14T10:16:24.801Z,16.48
2018-08-14T10:17:24.816Z,16.61
2018-08-14T10:18:24.837Z,17.01
2018-08-14T10:19:24.856Z,16.97
2018-08-14T10:20:24.875Z,16.39
2018-08-14T10:21:24.896Z,16.34
2018-08-14T10:22:24.915Z,16.27
2018-08-14T10:23:24.934Z,16.11
2018-08-14T10:24:24.954Z,16.00
2018-08-14T10:25:24.971Z,15.84
2018-08-14T10:26:24.992Z,15.64
2018-08-14T10:27:25.015Z,15.19
2018-08-14T10:28:25.063Z,15.06
2018-08-14T10:29:25.047Z,15.59
2018-08-14T10:30:25.071Z,15.92
2018-08-14T10:31:25.088Z,16.53
2018-08-14T10:32:25.108Z,16.82
2018-08-14T10:33:25.126Z,16.57
2018-08-14T10:34:25.168Z,16.34
2018-08-14T10:35:25.163Z,16.08
2018-08-14T10:36:25.181Z,16.45
2018-08-14T10:37:25.201Z,16.48
2018-08-14T10:38:25.219Z,16.98
2018-08-14T10:39:25.238Z,16.97
2018-08-14T10:40:25.258Z,16.61
2018-08-14T10:41:25.282Z,16.35
2018-08-14T10:42:25.299Z,16.25
2018-08-14T10:43:25.316Z,16.34
2018-08-14T10:44:25.337Z,16.38
2018-08-14T10:45:25.354Z,16.82
2018-08-14T10:46:25.417Z,16.73
2018-08-14T10:47:25.395Z,16.60
2018-08-14T10:48:25.415Z,16.78
2018-08-14T10:49:25.449Z,16.45
2018-08-14T10:50:25.451Z,16.43
2018-08-14T10:51:25.471Z,16.53
2018-08-14T10:52:25.490Z,16.28
2018-08-14T10:53:25.510Z,15.64
2018-08-14T10:54:25.531Z,15.56
2018-08-14T10:55:25.546Z,15.59
2018-08-14T10:56:25.568Z,16.27
2018-08-14T10:57:25.587Z,17.00
2018-08-14T10:58:25.605Z,17.49
2018-08-14T10:59:25.624Z,17.70
2018-08-14T11:00:25.643Z,17.52
2018-08-14T11:01:25.662Z,17.78
2018-08-14T11:02:25.682Z,18.32
2018-08-14T11:03:25.704Z,18.39
2018-08-14T11:04:25.774Z,17.99
2018-08-14T11:05:25.745Z,17.31
2018-08-14T11:06:25.766Z,17.06
2018-08-14T11:07:25.783Z,17.22
2018-08-14T11:08:25.801Z,17.64
2018-08-14T11:09:25.822Z,17.33
2018-08-14T11:10:25.842Z,17.19
2018-08-14T11:11:25.897Z,16.97
2018-08-14T11:12:25.881Z,17.00
2018-08-14T11:13:25.902Z,16.50
2018-08-14T11:14:25.920Z,15.89
2018-08-14T11:15:25.942Z,15.84
2018-08-14T11:16:26.059Z,16.00
2018-08-14T11:17:25.983Z,16.25
2018-08-14T11:18:26.000Z,16.28
2018-08-14T11:19:26.020Z,16.49
2018-08-14T11:20:26.038Z,16.12
2018-08-14T11:21:26.057Z,16.45
2018-08-14T11:22:26.078Z,17.01
2018-08-14T11:23:26.096Z,17.55
2018-08-14T11:24:26.119Z,17.44
2018-08-14T11:25:26.138Z,17.96
2018-08-14T11:26:26.159Z,17.75
2018-08-14T11:27:26.177Z,17.30
2018-08-14T11:28:26.196Z,17.75
2018-08-14T11:29:26.215Z,18.20
2018-08-14T11:30:26.238Z,18.05
2018-08-14T11:31:26.255Z,17.96
2018-08-14T11:32:26.331Z,18.30
2018-08-14T11:33:26.299Z,18.21
2018-08-14T11:34:26.315Z,18.27
2018-08-14T11:35:26.341Z,17.00
2018-08-14T11:36:26.357Z,17.01
2018-08-14T11:37:26.376Z,17.04
2018-08-14T11:38:26.395Z,16.89
2018-08-14T11:39:26.419Z,16.61
2018-08-14T11:40:26.443Z,16.12
2018-08-14T11:41:26.477Z,16.12
2018-08-14T11:42:26.478Z,16.05
2018-08-14T11:43:26.496Z,15.94
2018-08-14T11:44:26.520Z,15.56
2018-08-14T11:45:26.537Z,15.69
2018-08-14T11:46:26.558Z,15.76
2018-08-14T11:47:26.577Z,15.96
2018-08-14T11:48:26.599Z,16.01
2018-08-14T11:49:26.619Z,16.12
2018-08-14T11:50:26.638Z,16.24
2018-08-14T11:51:26.660Z,16.17
2018-08-14T11:52:26.684Z,16.24
2018-08-14T11:53:26.695Z,16.30
2018-08-14T11:54:26.720Z,16.12
2018-08-14T11:55:26.740Z,16.21
2018-08-14T11:56:26.758Z,15.82
2018-08-14T11:57:26.784Z,16.00
2018-08-14T11:58:26.797Z,15.94
2018-08-14T11:59:26.823Z,16.17
2018-08-14T12:00:26.838Z,16.05
2018-08-14T12:01:26.856Z,16.09
2018-08-14T12:02:26.877Z,16.33
2018-08-14T12:03:26.901Z,16.42
2018-08-14T12:04:26.916Z,16.35
2018-08-14T12:05:26.960Z,16.34
2018-08-14T12:06:26.962Z,16.17
2018-08-14T12:07:26.977Z,16.07
2018-08-14T12:08:26.999Z,15.94
2018-08-14T12:09:27.019Z,15.96
2018-08-14T12:10:27.042Z,15.78
2018-08-14T12:11:27.060Z,15.31
2018-08-14T12:12:27.080Z,15.16
2018-08-14T12:13:27.098Z,15.02
2018-08-14T12:14:27.122Z,14.99
2018-08-14T12:15:27.140Z,15.07
2018-08-14T12:16:27.161Z,15.14
2018-08-14T12:17:27.178Z,15.23
2018-08-14T12:18:27.232Z,15.28
2018-08-14T12:19:27.219Z,15.34
2018-08-14T12:20:27.238Z,15.14
2018-08-14T12:21:27.256Z,15.09
2018-08-14T12:22:27.276Z,15.07
2018-08-14T12:23:27.297Z,15.06
2018-08-14T12:24:27.318Z,15.17
2018-08-14T12:25:27.338Z,15.14
2018-08-14T12:26:27.356Z,15.07
2018-08-14T12:27:27.378Z,14.99
2018-08-14T12:28:27.396Z,15.14
2018-08-14T12:29:27.414Z,15.28
2018-08-14T12:30:27.434Z,15.29
2018-08-14T12:31:27.456Z,15.39
2018-08-14T12:32:27.510Z,15.60
2018-08-14T12:33:27.497Z,15.64
2018-08-14T12:34:27.516Z,15.84
2018-08-14T12:35:27.533Z,16.05
2018-08-14T12:36:27.554Z,16.35
2018-08-14T12:37:27.578Z,16.58
2018-08-14T12:38:27.594Z,16.89
2018-08-14T12:39:27.613Z,16.91
2018-08-14T12:40:27.725Z,17.04
2018-08-14T12:41:27.655Z,17.58
2018-08-14T12:42:27.673Z,17.95
2018-08-14T12:43:27.695Z,17.95
2018-08-14T12:44:27.714Z,17.84
2018-08-14T12:45:27.734Z,18.11
2018-08-14T12:46:27.756Z,18.23
2018-08-14T12:47:27.779Z,18.44
2018-08-14T12:48:27.795Z,18.26
2018-08-14T12:49:27.817Z,17.78
2018-08-14T12:50:27.837Z,18.07
2018-08-14T12:51:27.858Z,17.62
2018-08-14T12:52:27.882Z,17.59